Startpagina
METAR-TAF:

METAR-TAF

Vliegvelden :

Tongatapu, Tonga

breedte: 21-14S, lengte: 175-09W, hoogte: 38 m

Actueel weer

Dit bericht is 37 minuten geleden gemaakt, om 07:00 UTC
Weinig wind
Temperatuur 21°C
Vochtigheid 94%
Druk 1014 hPa
Zicht 10 km of meer
Verspreide wolken op 900 ft
Verspreide wolken op 1800 ft, Stapelwolken.
Gebroken wolken op 3500 ft
lichte regenbuien

METAR: NFTF 240700Z 00000KT 9999 -SHRA SCT009 SCT018TCU BKN035 21/20 Q1014

Tijdstip: 21:37 (07:37 UTC)

Verwachting

Dit bericht is 2 uur en het 23 minuten geleden gemaakt, om 05:14 UTC
Verwachting geldig van 24 om 06 UTC tot 25 om 06 UTC
Wind 8 kt uit het oostzuidoosten
Zicht 10 km of meer
Weinig wolken op 1800 ft
Verspreide wolken op 10000 ft

TAF: NFTF 240514Z 2406/2506 12008KT 9999 FEW018 SCT100

Waarnemingen en weersverwachtingen van meer dan 4000 vliegvelden (METAR en TAF).

De beschikbare stations zijn de gele en rode punten op de kaart.

Ga met uw muis naar het station om de naam te zien.

Klik dan om waarnemingen en weersverwachtingen te zien.

kaart wijzigen: klik op de groene knoppen met een zwart kruis om in te zoomen, op de groene knop met een streepje om uit te zoomen of op de groene pijlen voor aangrenzende kaarten.


METAR-TAF: